Time,TemperatureF,DewpointF,PressureIn,WindDirection,WindDirectionDegrees,WindSpeedMPH,WindSpeedGustMPH,Humidity,HourlyPrecipIn,Conditions,Clouds,dailyrainin,SoftwareType,DateUTC
2013-01-30 00:12:00,34.2,34.0,29.39,NNE,22,4.0,7.0,98,0.03,,,0.01,weatherlink.com 1.10,2013-01-30 06:12:00,
2013-01-30 00:27:00,34.2,34.0,29.41,NNW,344,2.0,5.0,98,0.03,,,0.02,weatherlink.com 1.10,2013-01-30 06:27:00,
2013-01-30 00:42:00,34.1,33.0,29.42,NNW,335,3.0,5.0,97,0.03,,,0.03,weatherlink.com 1.10,2013-01-30 06:42:00,
2013-01-30 00:57:00,33.9,33.0,29.38,North,5,6.0,6.0,97,0.04,,,0.04,weatherlink.com 1.10,2013-01-30 06:57:00,
2013-01-30 01:12:00,33.9,33.0,29.38,NNE,29,2.0,7.0,98,0.04,,,0.05,weatherlink.com 1.10,2013-01-30 07:12:00,
2013-01-30 01:27:00,33.8,33.0,29.35,NNE,13,4.0,9.0,98,0.03,,,0.05,weatherlink.com 1.10,2013-01-30 07:27:00,
2013-01-30 01:42:00,33.7,33.0,29.34,NNE,22,3.0,12.0,98,0.03,,,0.06,weatherlink.com 1.10,2013-01-30 07:42:00,
2013-01-30 01:57:00,33.8,33.0,29.36,North,360,1.0,8.0,98,0.02,,,0.06,weatherlink.com 1.10,2013-01-30 07:57:00,
2013-01-30 02:12:00,33.9,33.0,29.36,NE,53,3.0,6.0,98,0.01,,,0.06,weatherlink.com 1.10,2013-01-30 08:12:00,
2013-01-30 02:27:00,33.9,33.0,29.38,NNW,342,2.0,5.0,98,0.01,,,0.06,weatherlink.com 1.10,2013-01-30 08:27:00,
2013-01-30 02:42:00,34.0,34.0,29.38,North,5,2.0,6.0,98,0.00,,,0.06,weatherlink.com 1.10,2013-01-30 08:42:00,
2013-01-30 02:57:00,34.0,34.0,29.40,NNW,328,1.0,4.0,98,0.01,,,0.07,weatherlink.com 1.10,2013-01-30 08:57:00,
2013-01-30 03:12:00,33.9,33.0,29.39,NNE,28,1.0,5.0,98,0.02,,,0.08,weatherlink.com 1.10,2013-01-30 09:12:00,
2013-01-30 03:27:00,33.8,33.0,29.37,North,10,3.0,3.0,98,0.03,,,0.09,weatherlink.com 1.10,2013-01-30 09:27:00,
2013-01-30 03:42:00,33.8,33.0,29.40,North,11,3.0,5.0,98,0.03,,,0.09,weatherlink.com 1.10,2013-01-30 09:42:00,
2013-01-30 03:57:00,33.8,33.0,29.38,NNE,29,2.0,6.0,98,0.03,,,0.10,weatherlink.com 1.10,2013-01-30 09:57:00,
2013-01-30 04:12:00,33.5,33.0,29.33,NE,46,2.0,7.0,98,0.03,,,0.11,weatherlink.com 1.10,2013-01-30 10:12:00,
2013-01-30 04:27:00,33.4,33.0,29.34,NNE,26,2.0,8.0,98,0.02,,,0.11,weatherlink.com 1.10,2013-01-30 10:27:00,
2013-01-30 04:42:00,33.4,33.0,29.31,NNW,342,1.0,8.0,98,0.01,,,0.11,weatherlink.com 1.10,2013-01-30 10:42:00,
2013-01-30 04:57:00,33.3,33.0,29.31,NNW,333,4.0,10.0,98,0.01,,,0.11,weatherlink.com 1.10,2013-01-30 10:57:00,
2013-01-30 05:12:00,33.1,33.0,29.31,NNE,32,2.0,11.0,98,0.01,,,0.12,weatherlink.com 1.10,2013-01-30 11:12:00,
2013-01-30 05:27:00,33.0,32.0,29.28,NE,47,0.0,12.0,97,0.01,,,0.12,weatherlink.com 1.10,2013-01-30 11:27:00,
2013-01-30 05:42:00,32.9,32.0,29.29,NE,49,4.0,8.0,97,0.01,,,0.12,weatherlink.com 1.10,2013-01-30 11:42:00,
2013-01-30 05:57:00,32.8,32.0,29.27,NE,34,4.0,8.0,97,0.01,,,0.12,weatherlink.com 1.10,2013-01-30 11:57:00,
2013-01-30 06:12:00,32.6,32.0,29.29,North,5,4.0,10.0,97,0.00,,,0.12,weatherlink.com 1.10,2013-01-30 12:12:00,
2013-01-30 06:27:00,32.5,32.0,29.29,North,350,5.0,8.0,96,0.00,,,0.12,weatherlink.com 1.10,2013-01-30 12:27:00,
2013-01-30 06:42:00,32.3,32.0,29.28,NE,38,4.0,9.0,97,0.00,,,0.12,weatherlink.com 1.10,2013-01-30 12:42:00,
2013-01-30 06:57:00,32.2,32.0,29.26,NNE,23,5.0,9.0,97,0.00,,,0.12,weatherlink.com 1.10,2013-01-30 12:57:00,
2013-01-30 07:12:00,32.1,31.0,29.26,NE,56,1.0,7.0,97,0.01,,,0.13,weatherlink.com 1.10,2013-01-30 13:12:00,
2013-01-30 07:27:00,32.0,31.0,29.27,NE,39,0.0,5.0,97,0.02,,,0.14,weatherlink.com 1.10,2013-01-30 13:27:00,
2013-01-30 07:43:00,32.0,31.0,29.25,NNE,28,2.0,11.0,97,0.02,,,0.14,weatherlink.com 1.10,2013-01-30 13:43:00,
2013-01-30 07:58:00,32.0,31.0,29.27,North,360,4.0,9.0,97,0.02,,,0.14,weatherlink.com 1.10,2013-01-30 13:58:00,
2013-01-30 08:13:00,32.0,31.0,29.27,NNW,337,3.0,10.0,97,0.01,,,0.14,weatherlink.com 1.10,2013-01-30 14:13:00,
2013-01-30 08:28:00,32.0,32.0,29.28,North,355,1.0,6.0,98,0.00,,,0.14,weatherlink.com 1.10,2013-01-30 14:28:00,
2013-01-30 08:43:00,31.9,31.0,29.27,North,355,3.0,7.0,98,0.00,,,0.14,weatherlink.com 1.10,2013-01-30 14:43:00,
2013-01-30 08:58:00,31.8,31.0,29.27,NW,305,0.0,4.0,97,0.00,,,0.14,weatherlink.com 1.10,2013-01-30 14:58:00,
2013-01-30 09:13:00,31.7,31.0,29.31,WNW,300,0.0,0.0,98,0.00,,,0.14,weatherlink.com 1.10,2013-01-30 15:13:00,
2013-01-30 09:28:00,31.6,31.0,29.30,NW,313,0.0,0.0,98,0.00,,,0.14,weatherlink.com 1.10,2013-01-30 15:28:00,
2013-01-30 09:43:00,31.4,31.0,29.29,NW,325,0.0,0.0,98,0.00,,,0.14,weatherlink.com 1.10,2013-01-30 15:43:00,
2013-01-30 09:58:00,31.5,31.0,29.29,North,360,0.0,0.0,98,0.00,,,0.14,weatherlink.com 1.10,2013-01-30 15:58:00,
2013-01-30 10:13:00,30.9,30.0,29.30,NW,322,0.0,0.0,97,0.00,,,0.14,weatherlink.com 1.10,2013-01-30 16:13:00,
2013-01-30 10:28:00,29.9,29.0,29.29,NNW,338,0.0,0.0,97,0.00,,,0.14,weatherlink.com 1.10,2013-01-30 16:28:00,
2013-01-30 10:43:00,29.4,29.0,29.28,NNE,17,0.0,0.0,97,0.00,,,0.14,weatherlink.com 1.10,2013-01-30 16:43:00,
2013-01-30 10:58:00,29.4,29.0,29.25,NNW,339,0.0,0.0,97,0.00,,,0.14,weatherlink.com 1.10,2013-01-30 16:58:00,
2013-01-30 11:13:00,29.5,29.0,29.29,NW,311,0.0,0.0,97,0.00,,,0.14,weatherlink.com 1.10,2013-01-30 17:13:00,
2013-01-30 11:28:00,29.3,29.0,29.28,NNW,332,0.0,0.0,97,0.00,,,0.14,weatherlink.com 1.10,2013-01-30 17:28:00,
2013-01-30 11:43:00,29.2,29.0,29.28,NNE,12,0.0,0.0,97,0.00,,,0.14,weatherlink.com 1.10,2013-01-30 17:43:00,
2013-01-30 11:58:00,29.2,29.0,29.27,NW,323,0.0,0.0,97,0.00,,,0.14,weatherlink.com 1.10,2013-01-30 17:58:00,
2013-01-30 12:13:00,29.0,28.0,29.27,NNW,346,0.0,0.0,96,0.00,,,0.14,weatherlink.com 1.10,2013-01-30 18:13:00,
2013-01-30 12:28:00,28.8,28.0,29.28,NW,318,0.0,0.0,96,0.00,,,0.14,weatherlink.com 1.10,2013-01-30 18:28:00,
2013-01-30 12:43:00,28.9,28.0,29.28,NW,313,0.0,0.0,95,0.01,,,0.15,weatherlink.com 1.10,2013-01-30 18:43:00,
2013-01-30 12:58:00,28.9,28.0,29.28,WNW,302,0.0,0.0,95,0.01,,,0.15,weatherlink.com 1.10,2013-01-30 18:58:00,
2013-01-30 13:13:00,28.7,28.0,29.29,NNW,334,0.0,0.0,95,0.01,,,0.15,weatherlink.com 1.10,2013-01-30 19:13:00,
2013-01-30 13:28:00,28.7,28.0,29.30,NNE,12,0.0,0.0,95,0.01,,,0.15,weatherlink.com 1.10,2013-01-30 19:28:00,
2013-01-30 13:43:00,28.5,27.0,29.31,NNW,333,0.0,0.0,94,0.01,,,0.16,weatherlink.com 1.10,2013-01-30 19:43:00,
2013-01-30 13:58:00,28.6,27.0,29.31,NW,321,0.0,0.0,95,0.01,,,0.16,weatherlink.com 1.10,2013-01-30 19:58:00,
2013-01-30 14:13:00,28.5,27.0,29.32,NW,321,0.0,0.0,94,0.01,,,0.16,weatherlink.com 1.10,2013-01-30 20:13:00,
2013-01-30 14:28:00,27.9,26.0,29.33,West,279,0.0,0.0,94,0.02,,,0.17,weatherlink.com 1.10,2013-01-30 20:28:00,
2013-01-30 14:43:00,27.2,26.0,29.34,NNW,348,0.0,0.0,93,0.01,,,0.17,weatherlink.com 1.10,2013-01-30 20:43:00,
2013-01-30 14:58:00,26.4,25.0,29.35,NNW,332,0.0,0.0,93,0.01,,,0.17,weatherlink.com 1.10,2013-01-30 20:58:00,
2013-01-30 15:13:00,25.6,24.0,29.36,WNW,292,0.0,0.0,94,0.01,,,0.17,weatherlink.com 1.10,2013-01-30 21:13:00,
2013-01-30 15:28:00,25.1,23.0,29.37,WNW,294,0.0,0.0,93,0.00,,,0.17,weatherlink.com 1.10,2013-01-30 21:28:00,
2013-01-30 15:43:00,24.8,23.0,29.38,NNW,346,0.0,0.0,93,0.00,,,0.17,weatherlink.com 1.10,2013-01-30 21:43:00,
2013-01-30 15:58:00,24.5,23.0,29.39,NNE,26,0.0,0.0,93,0.00,,,0.17,weatherlink.com 1.10,2013-01-30 21:58:00,
2013-01-30 16:13:00,23.8,22.0,29.40,NNW,328,0.0,0.0,93,0.00,,,0.17,weatherlink.com 1.10,2013-01-30 22:13:00,
2013-01-30 16:28:00,23.3,22.0,29.41,North,350,0.0,0.0,93,0.00,,,0.17,weatherlink.com 1.10,2013-01-30 22:28:00,
2013-01-30 16:43:00,22.6,21.0,29.43,NNW,331,0.0,0.0,93,0.00,,,0.17,weatherlink.com 1.10,2013-01-30 22:43:00,
2013-01-30 16:58:00,22.3,21.0,29.44,WNW,296,0.0,0.0,93,0.00,,,0.17,weatherlink.com 1.10,2013-01-30 22:58:00,
2013-01-30 17:13:00,22.4,21.0,29.45,NW,306,0.0,0.0,94,0.00,,,0.17,weatherlink.com 1.10,2013-01-30 23:13:00,
2013-01-30 17:28:00,22.4,21.0,29.45,NNW,332,0.0,0.0,94,0.00,,,0.17,weatherlink.com 1.10,2013-01-30 23:28:00,
2013-01-30 17:43:00,21.7,20.0,29.46,NW,319,0.0,0.0,93,0.00,,,0.17,weatherlink.com 1.10,2013-01-30 23:43:00,
2013-01-30 17:58:00,21.6,20.0,29.48,WSW,256,0.0,0.0,93,0.00,,,0.17,weatherlink.com 1.10,2013-01-30 23:58:00,
2013-01-30 18:13:00,21.4,20.0,29.48,NNW,331,0.0,0.0,93,0.00,,,0.17,weatherlink.com 1.10,2013-01-31 00:13:00,
2013-01-30 18:28:00,20.9,19.0,29.49,NW,321,0.0,0.0,92,0.00,,,0.17,weatherlink.com 1.10,2013-01-31 00:28:00,
2013-01-30 18:44:00,20.1,18.0,29.50,WNW,300,0.0,0.0,91,0.00,,,0.17,weatherlink.com 1.10,2013-01-31 00:44:00,
2013-01-30 18:59:00,19.1,17.0,29.50,NW,317,0.0,0.0,91,0.00,,,0.17,weatherlink.com 1.10,2013-01-31 00:59:00,
2013-01-30 19:14:00,18.3,16.0,29.52,WNW,296,0.0,0.0,91,0.00,,,0.17,weatherlink.com 1.10,2013-01-31 01:14:00,
2013-01-30 19:29:00,18.2,16.0,29.53,WNW,297,0.0,0.0,92,0.00,,,0.17,weatherlink.com 1.10,2013-01-31 01:29:00,
2013-01-30 19:44:00,18.5,16.0,29.53,WSW,251,0.0,0.0,91,0.00,,,0.17,weatherlink.com 1.10,2013-01-31 01:44:00,
2013-01-30 19:59:00,18.5,16.0,29.54,WNW,302,0.0,0.0,91,0.00,,,0.17,weatherlink.com 1.10,2013-01-31 01:59:00,
2013-01-30 20:14:00,18.1,16.0,29.55,NW,306,0.0,0.0,90,0.00,,,0.17,weatherlink.com 1.10,2013-01-31 02:14:00,
2013-01-30 20:29:00,17.7,15.0,29.56,WNW,298,0.0,0.0,90,0.00,,,0.17,weatherlink.com 1.10,2013-01-31 02:29:00,
2013-01-30 20:44:00,17.6,15.0,29.57,WNW,294,0.0,0.0,90,0.00,,,0.17,weatherlink.com 1.10,2013-01-31 02:44:00,
2013-01-30 20:59:00,17.6,15.0,29.57,WNW,300,0.0,0.0,90,0.00,,,0.17,weatherlink.com 1.10,2013-01-31 02:59:00,
2013-01-30 21:14:00,17.6,15.0,29.57,WNW,296,0.0,0.0,90,0.00,,,0.17,weatherlink.com 1.10,2013-01-31 03:14:00,
2013-01-30 21:29:00,17.3,15.0,29.59,WNW,302,0.0,0.0,90,0.00,,,0.17,weatherlink.com 1.10,2013-01-31 03:29:00,
2013-01-30 21:44:00,17.0,14.0,29.59,WNW,283,0.0,0.0,89,0.00,,,0.17,weatherlink.com 1.10,2013-01-31 03:44:00,
2013-01-30 21:59:00,16.5,14.0,29.60,WNW,291,0.0,0.0,88,0.00,,,0.17,weatherlink.com 1.10,2013-01-31 03:59:00,
2013-01-30 22:14:00,15.9,13.0,29.60,NW,307,0.0,0.0,87,0.00,,,0.17,weatherlink.com 1.10,2013-01-31 04:14:00,
2013-01-30 22:29:00,15.5,12.0,29.61,WNW,289,0.0,0.0,87,0.00,,,0.17,weatherlink.com 1.10,2013-01-31 04:29:00,
2013-01-30 22:44:00,15.5,12.0,29.61,WNW,286,0.0,0.0,87,0.00,,,0.17,weatherlink.com 1.10,2013-01-31 04:44:00,
2013-01-30 22:59:00,15.2,12.0,29.62,WNW,283,0.0,0.0,86,0.00,,,0.17,weatherlink.com 1.10,2013-01-31 04:59:00,
2013-01-30 23:14:00,14.7,11.0,29.63,WNW,290,0.0,0.0,86,0.00,,,0.17,weatherlink.com 1.10,2013-01-31 05:14:00,
2013-01-30 23:29:00,14.6,11.0,29.64,WNW,290,0.0,0.0,86,0.00,,,0.17,weatherlink.com 1.10,2013-01-31 05:29:00,
2013-01-30 23:44:00,14.7,11.0,29.64,West,272,0.0,0.0,86,0.00,,,0.17,weatherlink.com 1.10,2013-01-31 05:44:00,
2013-01-30 23:59:00,14.8,11.0,29.65,WNW,298,0.0,0.0,86,0.00,,,0.17,weatherlink.com 1.10,2013-01-31 05:59:00,